createdAt,value
2023-04-09T00:01:07.151Z,101974.95
2023-04-09T00:03:37.356Z,101971.81
2023-04-09T00:06:06.155Z,101970.91
2023-04-09T00:08:34.387Z,101969.01
2023-04-09T00:11:02.845Z,101968.48
2023-04-09T00:13:39.232Z,101963.61
2023-04-09T00:16:08.917Z,101964.09
2023-04-09T00:18:37.510Z,101962.84
2023-04-09T00:21:05.868Z,101964.17
2023-04-09T00:23:34.527Z,101958.58
2023-04-09T00:26:02.818Z,101962.31
2023-04-09T00:28:31.521Z,101962.23
2023-04-09T00:30:59.696Z,101964.96
2023-04-09T00:33:27.997Z,101959.23
2023-04-09T00:42:33.816Z,101955.37
2023-04-09T00:45:02.380Z,101951.35
2023-04-09T00:47:31.188Z,101952.73
2023-04-09T00:50:01.468Z,101952.18
2023-04-09T00:52:31.151Z,101955.45
2023-04-09T00:55:01.350Z,101958.36
2023-04-09T00:57:29.460Z,101955.92
2023-04-09T00:59:57.871Z,101956.25
2023-04-09T01:02:26.856Z,101956.96
2023-04-09T01:04:55.374Z,101954.89
2023-04-09T01:08:02.437Z,101954.55
2023-04-09T01:10:47.794Z,101956.23
2023-04-09T01:13:24.636Z,101955.33
2023-04-09T01:15:57.310Z,101952.16
2023-04-09T01:18:49.302Z,101951.59
2023-04-09T01:21:22.577Z,101952.23
2023-04-09T01:24:11.120Z,101953.57
2023-04-09T01:27:08.366Z,101952.89
2023-04-09T01:29:53.725Z,101952.38
2023-04-09T01:32:23.290Z,101955.95
2023-04-09T01:34:52.120Z,101957.86
2023-04-09T01:37:21.022Z,101956.67
2023-04-09T01:39:49.164Z,101958.06
2023-04-09T01:42:18.586Z,101957.73
2023-04-09T01:44:47.023Z,101956.54
2023-04-09T01:47:16.008Z,101952.88
2023-04-09T01:49:45.022Z,101953.73
2023-04-09T01:52:13.498Z,101959.06
2023-04-09T01:54:42.926Z,101960.09
2023-04-09T01:57:11.476Z,101959.10
2023-04-09T01:59:39.582Z,101960.84
2023-04-09T02:02:17.872Z,101958.08
2023-04-09T02:04:49.485Z,101958.27
2023-04-09T02:07:22.825Z,101957.80
2023-04-09T02:09:53.617Z,101956.45
2023-04-09T02:12:22.387Z,101954.44
2023-04-09T02:14:52.314Z,101954.46
2023-04-09T02:17:20.961Z,101954.31
2023-04-09T02:19:49.615Z,101959.20
2023-04-09T02:22:17.941Z,101958.05
2023-04-09T02:24:49.139Z,101954.80
2023-04-09T02:27:17.448Z,101954.99
2023-04-09T02:29:45.671Z,101953.13
2023-04-09T02:32:14.185Z,101951.25
2023-04-09T02:34:42.610Z,101950.98
2023-04-09T02:37:11.021Z,101950.84
2023-04-09T02:39:39.164Z,101951.73
2023-04-09T02:42:08.100Z,101951.12
2023-04-09T02:44:36.356Z,101950.65
2023-04-09T02:47:04.613Z,101950.34
2023-04-09T02:49:33.145Z,101951.23
2023-04-09T02:52:01.258Z,101951.42
2023-04-09T02:54:29.609Z,101950.27
2023-04-09T02:56:57.657Z,101952.05
2023-04-09T02:59:25.749Z,101948.84
2023-04-09T03:01:54.225Z,101946.63
2023-04-09T03:04:22.598Z,101947.69
2023-04-09T03:06:51.723Z,101944.60
2023-04-09T03:09:19.929Z,101946.16
2023-04-09T03:11:48.211Z,101946.84
2023-04-09T03:14:16.381Z,101947.52
2023-04-09T03:16:46.194Z,101945.79
2023-04-09T03:19:14.362Z,101944.73
2023-04-09T03:21:43.198Z,101942.46
2023-04-09T03:24:12.437Z,101942.42
2023-04-09T03:26:41.570Z,101941.86
2023-04-09T03:29:10.334Z,101938.89
2023-04-09T03:31:38.503Z,101941.65
2023-04-09T03:34:06.814Z,101941.99
2023-04-09T03:36:35.083Z,101941.97
2023-04-09T03:39:11.965Z,101944.52
2023-04-09T03:41:43.427Z,101946.39
2023-04-09T03:44:15.393Z,101947.55
2023-04-09T03:46:56.743Z,101947.36
2023-04-09T03:49:25.438Z,101951.11
2023-04-09T03:51:54.668Z,101949.91
2023-04-09T03:54:24.686Z,101950.07
2023-04-09T03:56:54.311Z,101949.09
2023-04-09T03:59:24.452Z,101949.96
2023-04-09T04:01:53.352Z,101956.02
2023-04-09T04:04:23.775Z,101957.22
2023-04-09T04:06:56.791Z,101954.98
2023-04-09T04:09:34.294Z,101954.15
2023-04-09T04:12:06.612Z,101956.20
2023-04-09T04:14:53.081Z,101958.28
2023-04-09T04:17:33.225Z,101955.69
2023-04-09T04:20:02.537Z,101956.20
2023-04-09T04:22:35.820Z,101957.71
2023-04-09T04:25:05.209Z,101957.86
2023-04-09T04:27:33.409Z,101958.33
2023-04-09T04:30:02.525Z,101952.05
2023-04-09T04:32:53.778Z,101949.77
2023-04-09T04:35:23.053Z,101951.09
2023-04-09T04:37:54.079Z,101951.39
2023-04-09T04:40:22.493Z,101956.34
2023-04-09T04:42:53.131Z,101955.38
2023-04-09T04:45:21.561Z,101954.77
2023-04-09T04:47:53.059Z,101953.10
2023-04-09T04:50:21.426Z,101956.66
2023-04-09T04:52:59.763Z,101958.88
2023-04-09T04:55:31.221Z,101965.64
2023-04-09T04:58:01.497Z,101964.95
2023-04-09T05:00:31.793Z,101968.04
2023-04-09T05:03:02.019Z,101968.19
2023-04-09T05:05:59.956Z,101969.70
2023-04-09T05:08:31.034Z,101969.64
2023-04-09T05:10:59.478Z,101970.48
2023-04-09T05:13:33.547Z,101972.40
2023-04-09T05:16:02.731Z,101969.63
2023-04-09T05:18:32.241Z,101966.87
2023-04-09T05:21:00.867Z,101970.35
2023-04-09T05:23:30.532Z,101969.52
2023-04-09T05:25:58.584Z,101968.48
2023-04-09T05:28:44.913Z,101961.71
2023-04-09T05:31:17.376Z,101964.77
2023-04-09T05:33:58.056Z,101966.08
2023-04-09T05:36:34.686Z,101966.08
2023-04-09T05:39:03.579Z,101962.28
2023-04-09T05:41:33.669Z,101963.82
2023-04-09T05:44:20.633Z,101964.85
2023-04-09T05:46:49.865Z,101965.05
2023-04-09T05:49:20.933Z,101962.33
2023-04-09T05:51:51.715Z,101964.61
2023-04-09T05:54:26.215Z,101965.00
2023-04-09T05:56:54.429Z,101964.04
2023-04-09T05:59:23.084Z,101965.79
2023-04-09T06:01:51.509Z,101962.74
2023-04-09T06:04:19.762Z,101961.60
2023-04-09T06:06:48.236Z,101963.38
2023-04-09T06:09:16.496Z,101964.08
2023-04-09T06:11:44.570Z,101960.83
2023-04-09T06:14:16.590Z,101957.55
2023-04-09T06:16:44.876Z,101957.86
2023-04-09T06:19:16.836Z,101959.06
2023-04-09T06:21:44.981Z,101956.48
2023-04-09T06:24:13.182Z,101955.81
2023-04-09T06:26:41.622Z,101956.68
2023-04-09T06:29:09.740Z,101954.61
2023-04-09T06:31:38.244Z,101951.17
2023-04-09T06:34:06.684Z,101950.14
2023-04-09T06:36:37.739Z,101954.46
2023-04-09T06:39:06.880Z,101954.65
2023-04-09T06:41:34.970Z,101956.71
2023-04-09T06:44:08.422Z,101962.80
2023-04-09T06:46:36.741Z,101966.96
2023-04-09T06:49:04.786Z,101969.42
2023-04-09T06:51:32.958Z,101971.73
2023-04-09T06:54:01.267Z,101976.09
2023-04-09T06:56:29.301Z,101978.55
2023-04-09T06:58:57.671Z,101977.40
2023-04-09T07:01:26.616Z,101978.69
2023-04-09T07:03:55.324Z,101979.83
2023-04-09T07:06:24.082Z,101984.20
2023-04-09T07:08:52.797Z,101982.37
2023-04-09T07:11:21.639Z,101982.58
2023-04-09T07:13:50.581Z,101987.14
2023-04-09T07:16:18.764Z,101984.43
2023-04-09T07:18:47.112Z,101982.71
2023-04-09T07:21:16.475Z,101987.75
2023-04-09T07:23:44.999Z,101988.11
2023-04-09T07:26:13.090Z,101988.66
2023-04-09T07:28:42.314Z,101983.48
2023-04-09T07:31:11.603Z,101987.84
2023-04-09T07:33:39.805Z,101990.98
2023-04-09T07:36:08.767Z,101991.20
2023-04-09T07:38:37.172Z,101989.85
2023-04-09T07:41:05.799Z,101992.83
2023-04-09T07:43:34.028Z,101990.40
2023-04-09T07:46:02.258Z,101996.80
2023-04-09T07:48:30.531Z,101996.08
2023-04-09T07:50:58.662Z,101991.58
2023-04-09T07:53:26.859Z,101994.52
2023-04-09T07:55:54.982Z,101997.12
2023-04-09T07:58:23.197Z,101998.71
2023-04-09T08:00:51.456Z,101998.77
2023-04-09T08:03:19.750Z,101992.08
2023-04-09T08:05:48.606Z,101989.71
2023-04-09T08:08:17.158Z,101993.58
2023-04-09T08:10:45.377Z,101996.03
2023-04-09T08:13:13.544Z,102000.03
2023-04-09T08:15:41.951Z,102006.98
2023-04-09T08:18:10.174Z,102006.68
2023-04-09T08:20:45.127Z,102004.86
2023-04-09T08:23:14.030Z,102001.45
2023-04-09T08:25:42.110Z,102004.10
2023-04-09T08:28:10.284Z,102006.90
2023-04-09T08:30:38.739Z,102010.39
2023-04-09T08:33:07.114Z,102007.61
2023-04-09T08:35:35.302Z,102008.65
2023-04-09T08:38:03.360Z,102005.52
2023-04-09T08:40:35.024Z,102003.60
2023-04-09T08:43:09.425Z,102000.12
2023-04-09T08:45:41.185Z,102003.39
2023-04-09T08:48:14.031Z,102006.34
2023-04-09T08:50:42.440Z,102005.52
2023-04-09T08:53:11.235Z,102007.27
2023-04-09T08:55:45.755Z,102003.11
2023-04-09T08:58:14.507Z,102002.74
2023-04-09T09:00:43.049Z,102002.76
2023-04-09T09:03:15.407Z,102006.60
2023-04-09T09:05:44.480Z,102011.13
2023-04-09T09:08:23.321Z,102010.27
2023-04-09T09:10:52.018Z,102010.30
2023-04-09T09:13:25.287Z,102014.29
2023-04-09T09:16:03.343Z,102015.86
2023-04-09T09:18:42.396Z,102013.64
2023-04-09T09:21:12.151Z,102017.63
2023-04-09T09:23:40.527Z,102020.77
2023-04-09T09:26:18.383Z,102027.04
2023-04-09T09:28:48.444Z,102027.77
2023-04-09T09:31:18.814Z,102024.31
2023-04-09T09:33:48.647Z,102024.67
2023-04-09T09:36:33.724Z,102025.40
2023-04-09T09:39:10.052Z,102024.71
2023-04-09T09:41:38.829Z,102025.41
2023-04-09T09:44:08.942Z,102022.66
2023-04-09T09:46:39.563Z,102022.69
2023-04-09T09:49:08.963Z,102020.11
2023-04-09T09:51:39.717Z,102019.93
2023-04-09T09:54:13.055Z,102014.56
2023-04-09T09:56:44.161Z,102012.17
2023-04-09T09:59:34.577Z,102013.75
2023-04-09T10:02:11.228Z,102014.23
2023-04-09T10:04:40.752Z,102014.91
2023-04-09T10:07:09.270Z,102012.30
2023-04-09T10:09:46.042Z,102015.77
2023-04-09T10:12:14.447Z,102014.92
2023-04-09T10:14:43.638Z,102015.84
2023-04-09T10:17:12.111Z,102012.55
2023-04-09T10:19:46.363Z,102013.59
2023-04-09T10:22:21.640Z,102009.95
2023-04-09T10:24:51.497Z,102013.77
2023-04-09T10:27:19.677Z,102012.90
2023-04-09T10:29:49.473Z,102010.31
2023-04-09T10:32:26.866Z,102007.70
2023-04-09T10:35:01.776Z,102011.87
2023-04-09T10:37:30.178Z,102007.00
2023-04-09T10:39:58.832Z,102008.04
2023-04-09T10:42:32.869Z,102009.44
2023-04-09T10:45:12.384Z,102011.00
2023-04-09T10:47:42.934Z,102014.63
2023-04-09T10:50:24.108Z,102011.31
2023-04-09T10:52:54.727Z,102016.15
2023-04-09T10:55:38.393Z,102014.92
2023-04-09T10:58:11.328Z,102015.63
2023-04-09T11:00:45.545Z,102019.61
2023-04-09T11:03:32.862Z,102026.20
2023-04-09T11:06:09.478Z,102022.54
2023-04-09T11:08:38.985Z,102019.41
2023-04-09T11:11:07.431Z,102025.48
2023-04-09T11:13:35.651Z,102028.95
2023-04-09T11:16:07.219Z,102032.59
2023-04-09T11:18:37.170Z,102036.95
2023-04-09T11:21:06.023Z,102034.35
2023-04-09T11:23:34.901Z,102036.61
2023-04-09T11:26:03.127Z,102038.00
2023-04-09T11:28:31.452Z,102038.52
2023-04-09T11:30:59.590Z,102033.64
2023-04-09T11:33:34.565Z,102030.84
2023-04-09T11:36:05.910Z,102032.04
2023-04-09T11:38:34.047Z,102032.87
2023-04-09T11:41:02.436Z,102034.23
2023-04-09T11:43:30.625Z,102035.41
2023-04-09T11:45:59.579Z,102036.62
2023-04-09T11:48:28.032Z,102034.17
2023-04-09T11:50:57.267Z,102035.21
2023-04-09T11:53:30.997Z,102034.17
2023-04-09T11:55:59.393Z,102032.09
2023-04-09T11:58:28.167Z,102033.14
2023-04-09T12:00:58.967Z,102036.63
2023-04-09T12:03:33.480Z,102039.05
2023-04-09T12:06:03.365Z,102038.70
2023-04-09T12:08:35.697Z,102039.20
2023-04-09T12:11:15.796Z,102039.37
2023-04-09T12:13:45.850Z,102044.08
2023-04-09T12:16:14.652Z,102042.35
2023-04-09T12:18:43.123Z,102040.64
2023-04-09T12:21:11.504Z,102041.69
2023-04-09T12:23:39.863Z,102039.95
2023-04-09T12:26:08.230Z,102042.05
2023-04-09T12:28:36.331Z,102040.14
2023-04-09T12:31:04.486Z,102039.09
2023-04-09T12:33:32.623Z,102038.39
2023-04-09T12:36:00.792Z,102039.95
2023-04-09T12:38:29.076Z,102041.33
2023-04-09T12:40:57.294Z,102037.86
2023-04-09T12:43:25.522Z,102040.10
2023-04-09T12:45:53.582Z,102037.31
2023-04-09T12:48:21.698Z,102036.63
2023-04-09T12:50:49.781Z,102036.11
2023-04-09T12:53:18.527Z,102036.48
2023-04-09T12:55:47.012Z,102037.73
2023-04-09T12:58:15.649Z,102037.94
2023-04-09T13:00:43.803Z,102034.98
2023-04-09T13:03:12.556Z,102037.40
2023-04-09T13:05:40.832Z,102037.89
2023-04-09T13:08:08.973Z,102035.95
2023-04-09T13:10:37.052Z,102033.15
2023-04-09T13:13:06.345Z,102035.39
2023-04-09T13:15:34.574Z,102032.95
2023-04-09T13:18:03.230Z,102027.77
2023-04-09T13:20:31.559Z,102027.07
2023-04-09T13:22:59.865Z,102025.89
2023-04-09T13:25:27.979Z,102024.02
2023-04-09T13:27:56.184Z,102022.82
2023-04-09T13:30:24.617Z,102024.73
2023-04-09T13:32:52.688Z,102019.74
2023-04-09T13:35:21.040Z,102022.74
2023-04-09T13:37:49.145Z,102027.98
2023-04-09T13:40:17.320Z,102023.80
2023-04-09T13:42:45.464Z,102016.48
2023-04-09T13:45:13.551Z,102016.44
2023-04-09T13:47:43.144Z,102014.30
2023-04-09T13:50:13.335Z,102012.48
2023-04-09T13:52:41.459Z,102011.77
2023-04-09T13:55:09.879Z,102010.36
2023-04-09T13:57:38.102Z,102010.98
2023-04-09T14:00:08.290Z,102010.90
2023-04-09T14:02:36.520Z,102010.49
2023-04-09T14:05:05.148Z,102010.70
2023-04-09T14:07:33.480Z,102009.35
2023-04-09T14:10:01.970Z,102005.81
2023-04-09T14:12:30.159Z,102005.75
2023-04-09T14:14:58.466Z,102005.35
2023-04-09T14:17:26.886Z,102006.52
2023-04-09T14:19:55.074Z,102008.02
2023-04-09T14:22:23.183Z,102006.27
2023-04-09T14:24:51.537Z,102007.25
2023-04-09T14:27:19.684Z,102008.55
2023-04-09T14:29:48.375Z,102008.81
2023-04-09T14:32:16.494Z,102003.09
2023-04-09T14:34:44.985Z,102002.98
2023-04-09T14:37:13.069Z,102003.34
2023-04-09T14:39:41.127Z,102001.32
2023-04-09T14:42:09.317Z,101997.84
2023-04-09T14:44:37.482Z,101994.91
2023-04-09T14:47:05.562Z,101992.44
2023-04-09T14:49:34.090Z,101993.48
2023-04-09T14:52:02.311Z,101991.87
2023-04-09T14:54:31.506Z,101991.36
2023-04-09T14:56:59.893Z,101993.73
2023-04-09T14:59:28.199Z,101994.95
2023-04-09T15:01:56.440Z,101991.98
2023-04-09T15:04:25.028Z,101995.49
2023-04-09T15:06:53.572Z,101995.92
2023-04-09T15:09:21.605Z,101997.45
2023-04-09T15:11:49.649Z,101999.89
2023-04-09T15:14:17.898Z,101998.41
2023-04-09T15:16:46.174Z,101999.10
2023-04-09T15:19:14.420Z,101997.38
2023-04-09T15:21:43.344Z,101996.24
2023-04-09T15:24:11.641Z,101995.67
2023-04-09T15:26:39.782Z,101992.54
2023-04-09T15:29:08.431Z,101991.69
2023-04-09T15:31:38.454Z,101994.27
2023-04-09T15:34:07.732Z,101994.21
2023-04-09T15:36:36.056Z,101991.52
2023-04-09T15:39:07.075Z,101992.34
2023-04-09T15:41:35.312Z,101991.61
2023-04-09T15:44:04.086Z,101990.86
2023-04-09T15:46:32.126Z,101995.92
2023-04-09T15:49:01.231Z,101994.84
2023-04-09T15:51:29.388Z,102000.05
2023-04-09T15:53:58.362Z,102002.15
2023-04-09T15:56:26.454Z,101996.11
2023-04-09T15:58:55.103Z,101998.93
2023-04-09T16:01:23.488Z,102002.36
2023-04-09T16:03:52.459Z,102001.46
2023-04-09T16:06:21.212Z,102002.90
2023-04-09T16:08:49.561Z,102007.11
2023-04-09T16:11:18.072Z,102006.19
2023-04-09T16:13:46.373Z,102011.72
2023-04-09T16:16:14.671Z,102011.10
2023-04-09T16:18:42.861Z,102013.78
2023-04-09T16:21:11.305Z,102014.57
2023-04-09T16:23:39.902Z,102009.36
2023-04-09T16:26:08.178Z,102005.68
2023-04-09T16:28:36.545Z,102006.50
2023-04-09T16:31:04.784Z,102004.31
2023-04-09T16:33:33.098Z,102004.93
2023-04-09T16:36:01.290Z,102011.81
2023-04-09T16:38:31.116Z,102010.11
2023-04-09T16:40:59.517Z,102010.29
2023-04-09T16:43:27.757Z,102010.95
2023-04-09T16:45:55.825Z,102009.23
2023-04-09T16:48:24.226Z,102005.15
2023-04-09T16:50:52.723Z,102008.64
2023-04-09T16:53:21.040Z,102010.29
2023-04-09T16:55:49.188Z,102010.40
2023-04-09T16:58:17.682Z,102009.44
2023-04-09T17:00:47.206Z,102011.22
2023-04-09T17:03:16.527Z,102011.43
2023-04-09T17:05:49.429Z,102013.55
2023-04-09T17:08:18.698Z,102014.63
2023-04-09T17:10:46.898Z,102016.38
2023-04-09T17:13:15.057Z,102016.89
2023-04-09T17:15:43.708Z,102021.92
2023-04-09T17:18:12.188Z,102020.52
2023-04-09T17:20:40.580Z,102022.42
2023-04-09T17:23:08.927Z,102020.81
2023-04-09T17:25:37.738Z,102017.14
2023-04-09T17:28:06.249Z,102021.40
2023-04-09T17:30:35.036Z,102022.38
2023-04-09T17:33:03.554Z,102019.02
2023-04-09T17:35:32.746Z,102024.48
2023-04-09T17:38:01.770Z,102026.48
2023-04-09T17:40:30.476Z,102027.96
2023-04-09T17:43:00.196Z,102031.36
2023-04-09T17:45:28.466Z,102034.57
2023-04-09T17:47:57.310Z,102040.73
2023-04-09T17:50:25.521Z,102035.66
2023-04-09T17:52:53.663Z,102036.31
2023-04-09T17:55:23.410Z,102038.50
2023-04-09T17:57:51.891Z,102043.13
2023-04-09T18:00:20.622Z,102044.63
2023-04-09T18:02:52.271Z,102049.08
2023-04-09T18:05:22.147Z,102045.05
2023-04-09T18:07:51.659Z,102048.98
2023-04-09T18:10:21.301Z,102051.01
2023-04-09T18:12:49.343Z,102051.65
2023-04-09T18:15:18.817Z,102056.13
2023-04-09T18:17:48.267Z,102057.81
2023-04-09T18:20:17.316Z,102063.48
2023-04-09T18:22:45.564Z,102069.51
2023-04-09T18:25:13.880Z,102074.30
2023-04-09T18:27:42.339Z,102077.52
2023-04-09T18:30:11.072Z,102081.63
2023-04-09T18:32:39.847Z,102082.44
2023-04-09T18:35:08.501Z,102084.83
2023-04-09T18:37:38.127Z,102088.79
2023-04-09T18:40:12.584Z,102089.81
2023-04-09T18:42:41.162Z,102090.95
2023-04-09T18:45:09.835Z,102090.90
2023-04-09T18:47:38.906Z,102090.56
2023-04-09T18:50:08.084Z,102092.33
2023-04-09T18:52:39.035Z,102094.23
2023-04-09T18:55:07.624Z,102096.63
2023-04-09T18:57:36.304Z,102097.83
2023-04-09T19:00:06.334Z,102096.44
2023-04-09T19:02:34.874Z,102096.23
2023-04-09T19:05:07.279Z,102098.25
2023-04-09T19:07:38.112Z,102101.94
2023-04-09T19:10:07.133Z,102105.15
2023-04-09T19:12:35.313Z,102102.54
2023-04-09T19:15:04.908Z,102108.87
2023-04-09T19:17:34.157Z,102103.98
2023-04-09T19:20:03.135Z,102107.71
2023-04-09T19:22:31.932Z,102110.09
2023-04-09T19:25:00.009Z,102113.17
2023-04-09T19:27:28.634Z,102111.63
2023-04-09T19:29:58.986Z,102113.85
2023-04-09T19:32:27.682Z,102113.95
2023-04-09T19:34:56.327Z,102115.81
2023-04-09T19:37:28.168Z,102118.72
2023-04-09T19:39:57.869Z,102120.53
2023-04-09T19:42:28.767Z,102120.09
2023-04-09T19:44:56.907Z,102123.52
2023-04-09T19:47:25.080Z,102122.67
2023-04-09T19:49:54.737Z,102122.65
2023-04-09T19:52:23.066Z,102120.55
2023-04-09T19:54:57.902Z,102121.70
2023-04-09T19:57:26.632Z,102117.71
2023-04-09T19:59:55.617Z,102118.73
2023-04-09T20:02:24.213Z,102115.62
2023-04-09T20:04:52.488Z,102113.04
2023-04-09T20:07:20.669Z,102111.83
2023-04-09T20:09:49.700Z,102111.84
2023-04-09T20:12:17.987Z,102112.14
2023-04-09T20:14:46.657Z,102111.41
2023-04-09T20:17:14.775Z,102114.48
2023-04-09T20:19:42.822Z,102112.72
2023-04-09T20:22:10.996Z,102109.54
2023-04-09T20:24:39.102Z,102114.48
2023-04-09T20:27:07.459Z,102111.86
2023-04-09T20:29:35.568Z,102106.79
2023-04-09T20:32:03.787Z,102100.54
2023-04-09T20:34:32.779Z,102093.94
2023-04-09T20:37:01.744Z,102094.41
2023-04-09T20:39:31.360Z,102094.20
2023-04-09T20:41:59.550Z,102091.90
2023-04-09T20:44:28.850Z,102093.41
2023-04-09T20:46:56.989Z,102094.92
2023-04-09T20:49:25.137Z,102097.26
2023-04-09T20:51:53.294Z,102095.17
2023-04-09T20:54:23.229Z,102097.23
2023-04-09T20:56:51.436Z,102097.02
2023-04-09T20:59:19.709Z,102093.23
2023-04-09T21:01:48.609Z,102091.02
2023-04-09T21:04:17.064Z,102088.24
2023-04-09T21:06:45.415Z,102087.70
2023-04-09T21:09:13.974Z,102089.23
2023-04-09T21:11:42.051Z,102092.30
2023-04-09T21:14:11.202Z,102091.94
2023-04-09T21:16:39.606Z,102092.27
2023-04-09T21:19:08.155Z,102084.63
2023-04-09T21:21:37.181Z,102087.33
2023-04-09T21:24:05.484Z,102087.98
2023-04-09T21:26:45.331Z,102085.86
2023-04-09T21:29:21.445Z,102087.76
2023-04-09T21:31:49.951Z,102085.52
2023-04-09T21:34:18.380Z,102086.50
2023-04-09T21:36:46.700Z,102083.52
2023-04-09T21:39:15.029Z,102088.11
2023-04-09T21:41:43.130Z,102084.64
2023-04-09T21:44:11.274Z,102084.23
2023-04-09T21:46:40.841Z,102080.89
2023-04-09T21:49:09.406Z,102079.62
2023-04-09T21:51:38.875Z,102080.42
2023-04-09T21:54:08.812Z,102074.85
2023-04-09T21:56:37.324Z,102071.73
2023-04-09T21:59:05.704Z,102078.12
2023-04-09T22:01:35.141Z,102076.95
2023-04-09T22:04:03.871Z,102075.98
2023-04-09T22:06:32.618Z,102081.68
2023-04-09T22:09:01.849Z,102082.96
2023-04-09T22:11:30.759Z,102081.70
2023-04-09T22:13:58.976Z,102077.84
2023-04-09T22:16:27.337Z,102071.39
2023-04-09T22:18:56.309Z,102072.35
2023-04-09T22:21:24.905Z,102075.15
2023-04-09T22:23:53.723Z,102074.19
2023-04-09T22:26:22.749Z,102076.19
2023-04-09T22:28:51.118Z,102074.72
2023-04-09T22:31:20.027Z,102074.95
2023-04-09T22:33:48.269Z,102073.63
2023-04-09T22:36:16.459Z,102069.02
2023-04-09T22:38:44.729Z,102069.77
2023-04-09T22:41:12.849Z,102074.95
2023-04-09T22:43:41.249Z,102074.80
2023-04-09T22:46:09.381Z,102074.13
2023-04-09T22:48:44.153Z,102074.95
2023-04-09T22:51:14.152Z,102076.27
2023-04-09T22:53:42.254Z,102075.59
2023-04-09T22:56:10.406Z,102072.67
2023-04-09T22:58:39.193Z,102071.63
2023-04-09T23:01:07.757Z,102073.52
2023-04-09T23:03:36.043Z,102073.43
2023-04-09T23:06:04.509Z,102074.53
2023-04-09T23:08:32.709Z,102073.73
2023-04-09T23:11:01.224Z,102068.61
2023-04-09T23:13:29.507Z,102071.07
2023-04-09T23:15:57.817Z,102070.66
2023-04-09T23:18:26.198Z,102067.13
2023-04-09T23:20:54.334Z,102064.10
2023-04-09T23:23:22.513Z,102061.95
2023-04-09T23:25:50.798Z,102063.24
2023-04-09T23:28:18.885Z,102060.42
2023-04-09T23:30:46.937Z,102054.73
2023-04-09T23:33:15.036Z,102052.03
2023-04-09T23:35:43.508Z,102052.23
2023-04-09T23:38:11.735Z,102057.14
2023-04-09T23:40:39.880Z,102056.02
2023-04-09T23:43:08.027Z,102055.30
2023-04-09T23:45:36.136Z,102053.73
2023-04-09T23:48:06.243Z,102051.16
2023-04-09T23:50:37.998Z,102048.45
2023-04-09T23:53:06.781Z,102048.13
2023-04-09T23:55:38.226Z,102045.03
2023-04-09T23:58:06.457Z,102043.38
